Ana Sayfa
METAR-TAF:

METAR-TAF

Havaalanları :

Eastern Slopes Regional Airport

Fryeburg, Maine, Amerika Birleşik Devletleri

Enlem: 43-59-21N, Boylam: 070-57-01W, yükseklik: 137 m

Güncel hava durumu gözlemi

Rapor saat 17:54 UTC de 15 dakika önce yapıldı.
Sakin rüzgar
Sıcaklık 12°C
Nem 82%
Basınç 1003 hPa
Görüş mesafesi: 16.1 km
2500 ft yükseklikte parçalı çok bulutlu
3300 ft yükseklikte çok bulutlu
hafif yağmur

METAR: KIZG 101754Z AUTO 00000KT 10SM -RA BKN025 OVC033 12/09 A2963 RMK AO2 RAB45 SLP036 P0000 60000 T01170089 10128 20061 55014

Saat: 13:09 (18:09 UTC)


TAF: eksik

4.000'den fazla havaalanı için hava durumu gözlemleri ve tahminleri (METAR ve TAF raporları).

Kullanılabilir istasyonlar harita üzerinde sarı ve kırmızı noktalarla gösterilir.

İstasyonun adını görmek için fareyi noktanın üzerinde gezdirin.

Sonrasında hava gözlem ve tahminlerini görmek için tıklayın.

Haritayı değiştirmek için: yaklaştırmak için siyah artı işaretli yeşil düğmeye ve uzaklaştırmak için de eksi işaretli düğmeye hızla tıklayın; bitişik haritalar için yeşil okları kullanın.


METAR-TAF: